Airfield :
LOGIN :

Register | Disclaimer

   EN    FR    IT 

 










Legend :    VFR   Marginal VFR   IFR   Intensive IFR   Very Intensive IFR
Visi :
Ceiling :
>= 8 km
>= 3000ft
5 to 8 km
1000 to 3000 ft
1500m to 5 km
500 to 1000 ft
800 to 1500m
200 to 500 ft
< 800m
< 200 ft
Symbols :   Thunderstorms  Fog  Heavy snow  Heavy precipitations  Wind > 20 kt
SIGMETs :     Misc.  Thunderstorms  Icing  Turbulence  Mountain Waves  Volcanic Ashes







- Airport Elevation : 187 ft


ETNW - Wunstorf AB

EXPIRED METARs :
  • 241420Z AUTO 25012KT //// // ////// 19/13 Q1013 ///
  • 241320Z AUTO 25014KT //// // ////// 20/13 Q1013 ///
  • 241220Z AUTO 25014G27KT //// // ////// 21/13 Q1012 ///

TAF TAF ETNW
Valid from the 24 at 11:00 until the 25 at 11:00 UTC


241005Z 2411/2511 24010G20KT 9999 NSW BKN040 BKN100
TEMPO 2411/2418 24015G25KT 8000 NSW BKN020
TEMPO 2503/2509 24010KT 4000 DZRA BKN006 CANCEL BY ETGL
No reported NOTAMs for that airfield.



MET'MAP, your aeronautical weather chart ! - Copyright ORBIFLY December 2007 - Disclaimer

ORBIFLY MET'MAP TEAM :

Programming & Development : Alexandra Zaïnal
Concept & Development : Baudouin d'Aumeries
Co-Development & Prog : Marc-Olivier Méhu
Technical & hardware support : Manuel Goepfert

Contact : metmap@orbifly.com




SOURCES & CREDITS :

   NOAA